createdAt,value
2023-01-15T00:00:30.953Z,93534.00
2023-01-15T00:04:34.329Z,93520.00
2023-01-15T00:08:52.546Z,93518.00
2023-01-15T00:12:57.311Z,93514.00
2023-01-15T00:17:00.821Z,93512.00
2023-01-15T00:21:29.999Z,93498.00
2023-01-15T00:25:50.835Z,93495.00
2023-01-15T00:29:58.388Z,93474.00
2023-01-15T00:34:02.217Z,93480.00
2023-01-15T00:44:04.616Z,93480.00
2023-01-15T00:48:24.987Z,93473.00
2023-01-15T00:52:28.455Z,93475.00
2023-01-15T00:56:32.153Z,93465.00
2023-01-15T01:00:35.609Z,93474.00
2023-01-15T01:04:40.379Z,93461.00
2023-01-15T01:08:46.169Z,93462.00
2023-01-15T01:12:53.000Z,93455.00
2023-01-15T01:16:56.313Z,93450.00
2023-01-15T01:21:01.191Z,93450.00
2023-01-15T01:25:23.224Z,93441.00
2023-01-15T01:29:26.707Z,93440.00
2023-01-15T01:33:29.998Z,93424.00
2023-01-15T01:37:34.952Z,93431.00
2023-01-15T01:41:39.616Z,93416.00
2023-01-15T01:45:43.058Z,93415.00
2023-01-15T01:49:47.952Z,93407.00
2023-01-15T01:53:57.757Z,93407.00
2023-01-15T01:58:04.148Z,93414.00
2023-01-15T02:02:37.102Z,93412.00
2023-01-15T02:06:43.778Z,93403.00
2023-01-15T02:10:55.357Z,93387.00
2023-01-15T02:15:20.727Z,93386.00
2023-01-15T02:19:41.796Z,93391.00
2023-01-15T02:24:16.738Z,93378.00
2023-01-15T02:28:27.071Z,93373.00
2023-01-15T02:32:37.384Z,93371.00
2023-01-15T02:41:32.073Z,93363.00
2023-01-15T02:46:06.844Z,93356.00
2023-01-15T02:50:16.791Z,93354.00
2023-01-15T02:54:22.709Z,93348.00
2023-01-15T02:58:34.184Z,93340.00
2023-01-15T03:07:29.642Z,93318.00
2023-01-15T03:11:38.225Z,93333.00
2023-01-15T03:16:05.374Z,93329.00
2023-01-15T03:20:13.531Z,93318.00
2023-01-15T03:24:26.225Z,93328.00
2023-01-15T03:28:35.406Z,93316.00
2023-01-15T03:32:39.410Z,93320.00
2023-01-15T03:36:43.486Z,93310.00
2023-01-15T03:40:55.853Z,93306.00
2023-01-15T03:45:24.169Z,93284.00
2023-01-15T03:49:39.058Z,93232.00
2023-01-15T03:53:54.862Z,93229.00
2023-01-15T04:03:34.208Z,93244.00
2023-01-15T04:07:37.803Z,93238.00
2023-01-15T04:11:41.487Z,93216.00
2023-01-15T04:15:55.061Z,93214.00
2023-01-15T04:19:58.548Z,93242.00
2023-01-15T04:24:02.017Z,93233.00
2023-01-15T04:28:06.198Z,93227.00
2023-01-15T04:32:11.021Z,93207.00
2023-01-15T04:36:14.752Z,93228.00
2023-01-15T04:40:44.720Z,93233.00
2023-01-15T04:44:48.170Z,93233.00
2023-01-15T04:48:53.734Z,93226.00
2023-01-15T04:52:57.162Z,93239.00
2023-01-15T04:57:00.728Z,93252.00
2023-01-15T05:01:06.685Z,93244.00
2023-01-15T05:05:11.936Z,93248.00
2023-01-15T05:09:15.530Z,93253.00
2023-01-15T05:13:20.256Z,93265.00
2023-01-15T05:17:23.739Z,93267.00
2023-01-15T05:21:31.928Z,93265.00
2023-01-15T05:25:41.876Z,93255.00
2023-01-15T05:29:47.990Z,93257.00
2023-01-15T05:34:11.305Z,93241.00
2023-01-15T05:38:16.071Z,93215.00
2023-01-15T05:42:19.486Z,93206.00
2023-01-15T05:46:27.780Z,93167.00
2023-01-15T05:50:31.256Z,93185.00
2023-01-15T05:54:37.422Z,93192.00
2023-01-15T05:58:41.137Z,93188.00
2023-01-15T06:02:44.608Z,93188.00
2023-01-15T06:06:49.253Z,93178.00
2023-01-15T06:11:43.346Z,93192.00
2023-01-15T06:15:48.236Z,93202.00
2023-01-15T06:19:51.600Z,93206.00
2023-01-15T06:24:20.994Z,93192.00
2023-01-15T06:28:24.419Z,93184.00
2023-01-15T06:32:34.371Z,93166.00
2023-01-15T06:36:37.735Z,93159.00
2023-01-15T06:40:41.247Z,93167.00
2023-01-15T06:45:05.164Z,93153.00
2023-01-15T06:49:36.360Z,93141.00
2023-01-15T06:53:39.774Z,93133.00
2023-01-15T06:57:43.415Z,93118.00
2023-01-15T07:02:37.924Z,93116.00
2023-01-15T07:06:42.905Z,93111.00
2023-01-15T07:10:46.625Z,93099.00
2023-01-15T07:14:50.261Z,93114.00
2023-01-15T07:19:46.182Z,93094.00
2023-01-15T07:23:51.140Z,93090.00
2023-01-15T07:27:54.545Z,93081.00
2023-01-15T07:32:48.068Z,93081.00
2023-01-15T07:36:51.640Z,93080.00
2023-01-15T07:41:14.458Z,93074.00
2023-01-15T07:50:06.376Z,93080.00
2023-01-15T07:54:09.813Z,93082.00
2023-01-15T07:58:14.794Z,93087.00
2023-01-15T08:02:25.579Z,93083.00
2023-01-15T08:06:34.303Z,93075.00
2023-01-15T08:10:57.910Z,93078.00
2023-01-15T08:15:18.588Z,93072.00
2023-01-15T08:19:22.066Z,93078.00
2023-01-15T08:29:07.025Z,93078.00
2023-01-15T08:33:12.139Z,93077.00
2023-01-15T08:37:15.731Z,93085.00
2023-01-15T08:41:19.164Z,93085.00
2023-01-15T08:45:22.529Z,93096.00
2023-01-15T08:49:27.674Z,93069.00
2023-01-15T08:53:31.197Z,93101.00
2023-01-15T08:57:34.842Z,93099.00
2023-01-15T09:01:41.463Z,93101.00
2023-01-15T09:06:13.629Z,93105.00
2023-01-15T09:10:19.049Z,93116.00
2023-01-15T09:14:56.341Z,93118.00
2023-01-15T09:18:48.067Z,93126.00
2023-01-15T09:22:57.407Z,93116.00
2023-01-15T09:27:00.818Z,93115.00
2023-01-15T09:31:04.339Z,93100.00
2023-01-15T09:35:18.079Z,93100.00
2023-01-15T09:39:22.956Z,93089.00
2023-01-15T09:43:37.465Z,93089.00
2023-01-15T09:48:00.306Z,93080.00
2023-01-15T09:52:16.345Z,93073.00
2023-01-15T09:56:28.760Z,93062.00
2023-01-15T10:00:58.452Z,93049.00
2023-01-15T10:05:10.823Z,93034.00
2023-01-15T10:09:28.164Z,93032.00
2023-01-15T10:13:39.413Z,93037.00
2023-01-15T10:17:44.366Z,93021.00
2023-01-15T10:22:00.938Z,93029.00
2023-01-15T10:26:18.363Z,93025.00
2023-01-15T10:30:43.338Z,93018.00
2023-01-15T10:35:10.926Z,93010.00
2023-01-15T10:39:26.349Z,93003.00
2023-01-15T10:43:40.170Z,93014.00
2023-01-15T10:47:59.356Z,93018.00
2023-01-15T10:52:11.579Z,93010.00
2023-01-15T10:56:33.580Z,93009.00
2023-01-15T11:00:39.184Z,92993.00
2023-01-15T11:04:45.656Z,92995.00
2023-01-15T11:09:11.239Z,92994.00
2023-01-15T11:14:13.555Z,92992.00
2023-01-15T11:23:37.965Z,92973.00
2023-01-15T11:34:00.327Z,92967.00
2023-01-15T11:38:08.569Z,92938.00
2023-01-15T11:42:36.017Z,92945.00
2023-01-15T11:51:19.330Z,92924.00
2023-01-15T11:55:26.007Z,92924.00
2023-01-15T11:59:31.038Z,92923.00
2023-01-15T12:03:38.141Z,92921.00
2023-01-15T12:08:04.163Z,92908.00
2023-01-15T12:12:24.891Z,92903.00
2023-01-15T12:16:46.764Z,92898.00
2023-01-15T12:21:06.444Z,92891.00
2023-01-15T12:25:32.694Z,92887.00
2023-01-15T12:29:47.742Z,92906.00
2023-01-15T12:34:02.949Z,92910.00
2023-01-15T12:38:33.905Z,92906.00
2023-01-15T12:42:56.460Z,92890.00
2023-01-15T12:46:59.899Z,92891.00
2023-01-15T12:51:06.786Z,92900.00
2023-01-15T12:55:39.008Z,92882.00
2023-01-15T13:04:40.919Z,92884.00
2023-01-15T13:09:05.776Z,92890.00
2023-01-15T13:13:19.784Z,92871.00
2023-01-15T13:17:34.060Z,92869.00
2023-01-15T13:21:38.637Z,92872.00
2023-01-15T13:26:01.013Z,92880.00
2023-01-15T13:30:24.888Z,92879.00
2023-01-15T13:34:35.045Z,92873.00
2023-01-15T13:38:42.637Z,92894.00
2023-01-15T13:42:50.716Z,92898.00
2023-01-15T13:48:03.404Z,92909.00
2023-01-15T13:52:08.945Z,92921.00
2023-01-15T13:56:15.405Z,92919.00
2023-01-15T14:00:40.446Z,92938.00
2023-01-15T14:04:44.015Z,92943.00
2023-01-15T14:09:14.507Z,92963.00
2023-01-15T14:13:52.042Z,92954.00
2023-01-15T14:18:35.858Z,92974.00
2023-01-15T14:23:05.210Z,92995.00
2023-01-15T14:27:33.177Z,93022.00
2023-01-15T14:36:29.436Z,93015.00
2023-01-15T14:40:36.728Z,93018.00
2023-01-15T14:45:29.977Z,93038.00
2023-01-15T14:50:24.998Z,93030.00
2023-01-15T14:54:30.395Z,93047.00
2023-01-15T14:58:50.625Z,93044.00
2023-01-15T15:02:54.202Z,93075.00
2023-01-15T15:07:02.507Z,93084.00
2023-01-15T15:11:28.013Z,93101.00
2023-01-15T15:16:32.407Z,93103.00
2023-01-15T15:20:49.219Z,93114.00
2023-01-15T15:24:56.069Z,93127.00
2023-01-15T15:29:01.007Z,93152.00
2023-01-15T15:33:37.815Z,93119.00
2023-01-15T15:37:45.771Z,93154.00
2023-01-15T15:42:11.022Z,93159.00
2023-01-15T15:51:32.316Z,93183.00
2023-01-15T15:55:50.765Z,93182.00
2023-01-15T15:59:54.956Z,93201.00
2023-01-15T16:03:58.552Z,93211.00
2023-01-15T16:08:18.992Z,93207.00
2023-01-15T16:12:24.987Z,93216.00
2023-01-15T16:16:29.593Z,93213.00
2023-01-15T16:20:34.834Z,93211.00
2023-01-15T16:24:38.243Z,93216.00
2023-01-15T16:28:50.446Z,93223.00
2023-01-15T16:32:57.629Z,93231.00
2023-01-15T16:37:02.721Z,93237.00
2023-01-15T16:41:20.263Z,93248.00
2023-01-15T16:45:28.655Z,93240.00
2023-01-15T16:49:33.391Z,93261.00
2023-01-15T16:53:42.083Z,93274.00
2023-01-15T16:57:45.623Z,93281.00
2023-01-15T17:01:52.789Z,93284.00
2023-01-15T17:06:05.707Z,93291.00
2023-01-15T17:10:24.801Z,93291.00
2023-01-15T17:14:29.936Z,93298.00
2023-01-15T17:18:35.091Z,93306.00
2023-01-15T17:23:03.110Z,93313.00
2023-01-15T17:27:26.187Z,93315.00
2023-01-15T17:31:31.812Z,93314.00
2023-01-15T17:35:41.360Z,93318.00
2023-01-15T17:39:44.777Z,93326.00
2023-01-15T17:43:48.628Z,93330.00
2023-01-15T17:48:20.490Z,93329.00
2023-01-15T17:52:25.512Z,93338.00
2023-01-15T17:56:49.773Z,93335.00
2023-01-15T18:05:52.799Z,93334.00
2023-01-15T18:09:58.157Z,93333.00
2023-01-15T18:14:01.573Z,93325.00
2023-01-15T18:18:23.499Z,93322.00
2023-01-15T18:22:27.076Z,93313.00
2023-01-15T18:26:31.910Z,93312.00
2023-01-15T18:31:31.231Z,93332.00
2023-01-15T18:35:35.016Z,93346.00
2023-01-15T18:39:40.814Z,93353.00
2023-01-15T18:48:42.563Z,93366.00
2023-01-15T18:52:52.047Z,93349.00
2023-01-15T18:56:55.438Z,93354.00
2023-01-15T19:01:07.462Z,93342.00
2023-01-15T19:05:14.701Z,93334.00
2023-01-15T19:15:44.712Z,93348.00
2023-01-15T19:19:49.660Z,93378.00
2023-01-15T19:23:53.587Z,93372.00
2023-01-15T19:27:58.187Z,93365.00
2023-01-15T19:32:04.309Z,93362.00
2023-01-15T19:36:13.139Z,93361.00
2023-01-15T19:40:20.945Z,93371.00
2023-01-15T19:44:41.835Z,93379.00
2023-01-15T19:49:08.875Z,93376.00
2023-01-15T19:53:14.468Z,93367.00
2023-01-15T19:57:21.699Z,93354.00
2023-01-15T20:01:25.485Z,93383.00
2023-01-15T20:05:44.101Z,93372.00
2023-01-15T20:09:49.019Z,93366.00
2023-01-15T20:13:53.912Z,93350.00
2023-01-15T20:18:23.620Z,93364.00
2023-01-15T20:22:27.264Z,93364.00
2023-01-15T20:26:35.192Z,93389.00
2023-01-15T20:30:38.889Z,93372.00
2023-01-15T20:34:42.352Z,93382.00
2023-01-15T20:38:46.104Z,93373.00
2023-01-15T20:43:09.672Z,93355.00
2023-01-15T20:52:26.987Z,93366.00
2023-01-15T20:56:30.505Z,93355.00
2023-01-15T21:00:36.226Z,93351.00
2023-01-15T21:04:40.091Z,93347.00
2023-01-15T21:09:09.271Z,93342.00
2023-01-15T21:13:27.334Z,93346.00
2023-01-15T21:17:32.359Z,93332.00
2023-01-15T21:21:35.738Z,93329.00
2023-01-15T21:26:05.323Z,93353.00
2023-01-15T21:30:35.175Z,93348.00
2023-01-15T21:34:41.248Z,93340.00
2023-01-15T21:38:44.684Z,93347.00
2023-01-15T21:48:26.334Z,93326.00
2023-01-15T21:52:31.171Z,93323.00
2023-01-15T21:56:36.698Z,93319.00
2023-01-15T22:00:40.098Z,93306.00
2023-01-15T22:04:44.742Z,93314.00
2023-01-15T22:08:49.656Z,93308.00
2023-01-15T22:12:57.358Z,93300.00
2023-01-15T22:17:02.851Z,93290.00
2023-01-15T22:26:44.293Z,93283.00
2023-01-15T22:31:18.073Z,93286.00
2023-01-15T22:35:22.799Z,93271.00
2023-01-15T22:39:27.504Z,93272.00
2023-01-15T22:43:32.802Z,93272.00
2023-01-15T22:47:36.519Z,93276.00
2023-01-15T22:51:39.928Z,93266.00
2023-01-15T22:55:46.623Z,93265.00
2023-01-15T22:59:51.699Z,93249.00
2023-01-15T23:03:56.512Z,93270.00
2023-01-15T23:07:59.962Z,93263.00
2023-01-15T23:12:08.018Z,93260.00
2023-01-15T23:16:13.025Z,93249.00
2023-01-15T23:20:16.531Z,93238.00
2023-01-15T23:24:19.893Z,93242.00
2023-01-15T23:28:25.408Z,93243.00
2023-01-15T23:32:30.375Z,93246.00
2023-01-15T23:36:33.845Z,93227.00
2023-01-15T23:40:40.842Z,93219.00
2023-01-15T23:45:06.652Z,93200.00
2023-01-15T23:49:13.208Z,93202.00
2023-01-15T23:53:42.125Z,93194.00
2023-01-15T23:57:45.527Z,93196.00
